Aeroporto :
LOGIN :

Iscrizione | Disclaimer

   EN    FR    IT 

 










Sommario :    VFR   VFR Marginale   IFR   IFR Intensivo   IFR Molto Intensivo
Visibilità : 
Base nubi : 
>= 8 km
>= 3000ft
5 / 8 km
1000 / 3000 ft
1500m / 5 km
500 / 1000 ft
800 / 1500m
200 / 500 ft
< 800m
< 200 ft
Simboli :   Temporali  Nebbia  Neve Forte  Precipitazioni Forti  Vento > 20 kt
SIGMETs :   Varie  Temporali  Ghiacco  Turbolenza  Onda orograficha  Ceneri Vulcaniche






- Altitudine del aeroporto : 1079 ft


ETIK - Illesheim Air Base

ULTIMO METAR :
  • 070107Z AUTO 22010KT 9999 -RA OVC044 06/06 A2988 RMK AO2 RAE06RAB07 SLP129 $

METARs OBSOLETI :
  • 070106Z AUTO 22011KT 9999 CLR 06/06 A2988 RMK AO2 RAE06 SLP129 $
  • 070056Z AUTO 24012KT 9999 -RA SCT017 06/06 A2988 RMK AO2 RAB33 SLP129 P0001 T00600060 $
  • 070033Z AUTO 24015KT 9999 -RA BKN021 OVC028 07/07 A2988 RMK AO2 RAB33 SLP127 $
  • 062356Z AUTO 22011KT 9999 BKN034 OVC050 07/05 A2987 RMK AO2 SLP125 60006 T00680054 10068 20010 57016 $
  • 062256Z AUTO 22009KT 9999 OVC032 06/06 A2989 RMK AO2 RAE50 SLP134 P0004 T00560056 400671042 $

TAF TAF ETIK
Valido dal 06 a 15 ore il 07 a 21 ore UTC


061509Z 0615/0721 22012KT 9999 SCT015 QNH2991INS
BECMG 0619/0620 23020G35KT 6000 -SHRA BKN015 620208 540010 QNH2988INS
BECMG 0708/0709 25015KT 9999 NSW OVC005 620109 QNH2994INS TX07/0713Z TN02/0617Z LAST NO AMDS AFT 0615 NEXT 0823



MetMap, La meteo Aeronautica in un colpo d'occhio ! - Copyright ORBIFLY Dicembre 2007 - Disclaimer

ORBIFLY MET'MAP TEAM :

Programmazione e sviluppo : Alexandra Zaïnal
Concezione : Baudouin d'Aumeries
Aiuto per la programmazione : Marc-Olivier Méhu
Supporto tecnico e logistico : Manuel Goepfert
Aiuto per la traduzione : Arnaldo La Scala

Contatto : metmap@orbifly.com




FONTI E CREDITI :

   NOAA